FDX284 EDDK-EKCH
Flight info
| Callsign | FDX284 |
|---|---|
| Flight time | 1h 4m |
| Altitude | 37000 |
| Route | PODIP9B/31R PODIP Y867 PELUN DCT ANZIV DCT WRB Y867 TOLGI DCT MAKEL N851 GESKA Z711 MONAK |
| Aircraft | B763/H-SDE3FGHIM3RWXY/LB1 |
Departure
| Time | 2026-05-06 19:01 |
|---|---|
| Airport | Cologne Bonn Airport (EDDK) |
Arrival
| Time | 2026-05-06 20:06 |
|---|---|
| Airport | Copenhagen Kastrup Airport (EKCH) |
| Time | Latitude | Longitude | Altitude | Speed | Heading |
|---|---|---|---|---|---|
| 2026-05-06 18:17 | 50.87560 | 7.12821 | 244 ft | 0 kts | 227° |
| 2026-05-06 18:47 | 50.87561 | 7.12823 | 244 ft | 1 kts | 227° |
| 2026-05-06 18:47 | 50.87571 | 7.12840 | 244 ft | 2 kts | 227° |
| 2026-05-06 18:47 | 50.87582 | 7.12858 | 245 ft | 2 kts | 227° |
| 2026-05-06 18:48 | 50.87588 | 7.12869 | 245 ft | 2 kts | 225° |
| 2026-05-06 18:48 | 50.87600 | 7.12882 | 245 ft | 2 kts | 201° |
| 2026-05-06 18:48 | 50.87614 | 7.12888 | 246 ft | 2 kts | 184° |
| 2026-05-06 18:48 | 50.87629 | 7.12887 | 246 ft | 2 kts | 166° |
| 2026-05-06 18:49 | 50.87642 | 7.12879 | 246 ft | 2 kts | 147° |
| 2026-05-06 18:49 | 50.87649 | 7.12871 | 246 ft | 1 kts | 136° |
| 2026-05-06 18:49 | 50.87653 | 7.12866 | 246 ft | 0 kts | 137° |
| 2026-05-06 18:51 | 50.87652 | 7.12867 | 246 ft | 0 kts | 137° |
| 2026-05-06 18:51 | 50.87634 | 7.12892 | 246 ft | 6 kts | 137° |
| 2026-05-06 18:52 | 50.87587 | 7.12961 | 246 ft | 10 kts | 137° |
| 2026-05-06 18:52 | 50.87535 | 7.13037 | 246 ft | 10 kts | 137° |
| 2026-05-06 18:52 | 50.87470 | 7.13132 | 246 ft | 15 kts | 138° |
| 2026-05-06 18:52 | 50.87388 | 7.13249 | 247 ft | 14 kts | 135° |
| 2026-05-06 18:53 | 50.87353 | 7.13383 | 248 ft | 13 kts | 97° |
| 2026-05-06 18:53 | 50.87316 | 7.13511 | 249 ft | 15 kts | 135° |
| 2026-05-06 18:53 | 50.87225 | 7.13642 | 250 ft | 18 kts | 137° |
| 2026-05-06 18:53 | 50.87136 | 7.13771 | 252 ft | 16 kts | 137° |
| 2026-05-06 18:54 | 50.87054 | 7.13887 | 254 ft | 14 kts | 138° |
| 2026-05-06 18:54 | 50.86984 | 7.13988 | 257 ft | 12 kts | 138° |
| 2026-05-06 18:54 | 50.86914 | 7.14012 | 258 ft | 9 kts | 182° |
| 2026-05-06 18:54 | 50.86857 | 7.14027 | 258 ft | 7 kts | 152° |
| 2026-05-06 18:55 | 50.86821 | 7.14069 | 260 ft | 5 kts | 138° |
| 2026-05-06 18:55 | 50.86787 | 7.14111 | 261 ft | 7 kts | 150° |
| 2026-05-06 18:55 | 50.86722 | 7.14158 | 262 ft | 13 kts | 148° |
| 2026-05-06 18:55 | 50.86640 | 7.14270 | 266 ft | 15 kts | 137° |
| 2026-05-06 18:56 | 50.86552 | 7.14398 | 268 ft | 19 kts | 137° |
| 2026-05-06 18:56 | 50.86444 | 7.14558 | 272 ft | 21 kts | 137° |
| 2026-05-06 18:56 | 50.86337 | 7.14714 | 276 ft | 19 kts | 137° |
| 2026-05-06 18:56 | 50.86241 | 7.14849 | 278 ft | 16 kts | 136° |
| 2026-05-06 18:57 | 50.86161 | 7.14967 | 281 ft | 14 kts | 137° |
| 2026-05-06 18:57 | 50.86087 | 7.15074 | 283 ft | 14 kts | 137° |
| 2026-05-06 18:57 | 50.86007 | 7.15188 | 285 ft | 15 kts | 138° |
| 2026-05-06 18:57 | 50.85924 | 7.15310 | 287 ft | 17 kts | 137° |
| 2026-05-06 18:58 | 50.85833 | 7.15442 | 289 ft | 18 kts | 137° |
| 2026-05-06 18:58 | 50.85737 | 7.15580 | 291 ft | 19 kts | 137° |
| 2026-05-06 18:58 | 50.85637 | 7.15725 | 294 ft | 20 kts | 137° |
| 2026-05-06 18:58 | 50.85532 | 7.15875 | 297 ft | 20 kts | 137° |
| 2026-05-06 18:59 | 50.85432 | 7.16018 | 301 ft | 18 kts | 137° |
| 2026-05-06 18:59 | 50.85357 | 7.16154 | 304 ft | 15 kts | 119° |
| 2026-05-06 18:59 | 50.85335 | 7.16298 | 307 ft | 13 kts | 85° |
| 2026-05-06 18:59 | 50.85371 | 7.16427 | 309 ft | 13 kts | 52° |
| 2026-05-06 19:00 | 50.85446 | 7.16508 | 311 ft | 13 kts | 17° |
| 2026-05-06 19:00 | 50.85547 | 7.16507 | 310 ft | 15 kts | 341° |
| 2026-05-06 19:00 | 50.85597 | 7.16457 | 308 ft | 2 kts | 319° |
| 2026-05-06 19:00 | 50.85624 | 7.16419 | 307 ft | 19 kts | 318° |
| 2026-05-06 19:01 | 50.86013 | 7.15858 | 296 ft | 93 kts | 316° |
| 2026-05-06 19:01 | 50.86611 | 7.14983 | 278 ft | 140 kts | 317° |
| 2026-05-06 19:01 | 50.87425 | 7.13808 | 396 ft | 171 kts | 319° |
| 2026-05-06 19:01 | 50.88306 | 7.12591 | 1040 ft | 170 kts | 320° |
| 2026-05-06 19:02 | 50.89307 | 7.11608 | 1510 ft | 179 kts | 345° |
| 2026-05-06 19:02 | 50.90583 | 7.11511 | 1974 ft | 189 kts | 12° |
| 2026-05-06 19:02 | 50.91890 | 7.12229 | 2241 ft | 217 kts | 22° |
| 2026-05-06 19:02 | 50.93175 | 7.13502 | 3078 ft | 218 kts | 46° |
| 2026-05-06 19:03 | 50.93994 | 7.15384 | 4060 ft | 211 kts | 57° |
| 2026-05-06 19:03 | 50.94729 | 7.17563 | 4374 ft | 237 kts | 60° |
| 2026-05-06 19:03 | 50.95492 | 7.20017 | 4785 ft | 259 kts | 61° |
| 2026-05-06 19:03 | 50.96255 | 7.22560 | 5699 ft | 260 kts | 61° |
| 2026-05-06 19:04 | 50.97045 | 7.25158 | 6437 ft | 269 kts | 62° |
| 2026-05-06 19:04 | 50.97871 | 7.27843 | 7231 ft | 275 kts | 61° |
| 2026-05-06 19:04 | 50.98724 | 7.30594 | 8007 ft | 282 kts | 60° |
| 2026-05-06 19:04 | 50.99589 | 7.33367 | 8916 ft | 283 kts | 60° |
| 2026-05-06 19:05 | 51.00468 | 7.36115 | 9709 ft | 287 kts | 59° |
| 2026-05-06 19:05 | 51.01377 | 7.38965 | 10385 ft | 297 kts | 64° |
| 2026-05-06 19:05 | 51.01884 | 7.42230 | 10749 ft | 321 kts | 85° |
| 2026-05-06 19:05 | 51.01664 | 7.45864 | 11207 ft | 342 kts | 104° |
| 2026-05-06 19:06 | 51.00849 | 7.49480 | 11687 ft | 359 kts | 109° |
| 2026-05-06 19:06 | 51.00023 | 7.53302 | 12411 ft | 368 kts | 107° |
| 2026-05-06 19:06 | 50.99217 | 7.57152 | 13307 ft | 372 kts | 107° |
| 2026-05-06 19:06 | 50.98418 | 7.61113 | 13856 ft | 385 kts | 107° |
| 2026-05-06 19:07 | 50.97610 | 7.65142 | 13833 ft | 391 kts | 108° |
| 2026-05-06 19:07 | 50.97070 | 7.67855 | 13827 ft | 380 kts | 108° |
| 2026-05-06 19:07 | 50.96091 | 7.72781 | 13829 ft | 373 kts | 108° |
| 2026-05-06 19:07 | 50.95380 | 7.76494 | 13828 ft | 375 kts | 103° |
| 2026-05-06 19:08 | 50.95089 | 7.80396 | 13859 ft | 379 kts | 88° |
| 2026-05-06 19:08 | 50.95520 | 7.84704 | 13851 ft | 379 kts | 71° |
| 2026-05-06 19:08 | 50.96598 | 7.88412 | 13853 ft | 375 kts | 57° |
| 2026-05-06 19:08 | 50.97975 | 7.91970 | 13838 ft | 374 kts | 58° |
| 2026-05-06 19:09 | 50.99281 | 7.95488 | 13833 ft | 374 kts | 58° |
| 2026-05-06 19:09 | 51.00611 | 7.99063 | 13826 ft | 374 kts | 58° |
| 2026-05-06 19:09 | 51.01929 | 8.02625 | 13829 ft | 375 kts | 58° |
| 2026-05-06 19:09 | 51.03249 | 8.06205 | 13828 ft | 374 kts | 58° |
| 2026-05-06 19:10 | 51.04555 | 8.09749 | 13839 ft | 377 kts | 58° |
| 2026-05-06 19:10 | 51.05892 | 8.13387 | 14346 ft | 383 kts | 58° |
| 2026-05-06 19:10 | 51.07220 | 8.16999 | 15339 ft | 382 kts | 59° |
| 2026-05-06 19:10 | 51.08564 | 8.20677 | 16022 ft | 390 kts | 59° |
| 2026-05-06 19:11 | 51.09924 | 8.24394 | 16824 ft | 393 kts | 59° |
| 2026-05-06 19:11 | 51.11223 | 8.27969 | 17472 ft | 399 kts | 59° |
| 2026-05-06 19:11 | 51.12608 | 8.31790 | 18234 ft | 402 kts | 59° |
| 2026-05-06 19:11 | 51.14004 | 8.35642 | 18857 ft | 409 kts | 59° |
| 2026-05-06 19:12 | 51.15398 | 8.39498 | 19607 ft | 412 kts | 59° |
| 2026-05-06 19:12 | 51.16833 | 8.43468 | 20275 ft | 417 kts | 59° |
| 2026-05-06 19:12 | 51.18265 | 8.47440 | 20979 ft | 420 kts | 59° |
| 2026-05-06 19:12 | 51.19752 | 8.51493 | 21572 ft | 425 kts | 56° |
| 2026-05-06 19:13 | 51.21545 | 8.55265 | 22154 ft | 430 kts | 49° |
| 2026-05-06 19:13 | 51.23439 | 8.58887 | 22866 ft | 432 kts | 50° |
| 2026-05-06 19:13 | 51.25371 | 8.62589 | 23430 ft | 437 kts | 49° |
| 2026-05-06 19:13 | 51.27320 | 8.66321 | 23851 ft | 445 kts | 50° |
| 2026-05-06 19:14 | 51.29129 | 8.69784 | 23804 ft | 450 kts | 50° |
| 2026-05-06 19:14 | 51.31023 | 8.73415 | 23808 ft | 443 kts | 50° |
| 2026-05-06 19:14 | 51.32921 | 8.77056 | 23806 ft | 435 kts | 50° |
| 2026-05-06 19:14 | 51.34955 | 8.80967 | 23816 ft | 433 kts | 50° |
| 2026-05-06 19:15 | 51.36894 | 8.84697 | 23823 ft | 438 kts | 50° |
| 2026-05-06 19:15 | 51.38829 | 8.88420 | 23817 ft | 441 kts | 50° |
| 2026-05-06 19:15 | 51.40293 | 8.91232 | 23812 ft | 440 kts | 50° |
| 2026-05-06 19:15 | 51.42082 | 8.94674 | 23822 ft | 438 kts | 50° |
| 2026-05-06 19:16 | 51.44029 | 8.98427 | 23824 ft | 438 kts | 50° |
| 2026-05-06 19:16 | 51.45978 | 9.02188 | 24128 ft | 443 kts | 50° |
| 2026-05-06 19:16 | 51.47951 | 9.06002 | 24870 ft | 445 kts | 50° |
| 2026-05-06 19:16 | 51.49961 | 9.09809 | 25423 ft | 449 kts | 46° |
| 2026-05-06 19:17 | 51.52235 | 9.13158 | 26043 ft | 451 kts | 38° |
| 2026-05-06 19:17 | 51.54688 | 9.16347 | 26589 ft | 456 kts | 39° |
| 2026-05-06 19:17 | 51.57143 | 9.19552 | 27130 ft | 460 kts | 38° |
| 2026-05-06 19:17 | 51.59655 | 9.22825 | 27728 ft | 463 kts | 38° |
| 2026-05-06 19:18 | 51.61682 | 9.25463 | 28176 ft | 466 kts | 38° |
| 2026-05-06 19:18 | 51.64264 | 9.28827 | 28656 ft | 471 kts | 38° |
| 2026-05-06 19:18 | 51.66929 | 9.32301 | 29149 ft | 476 kts | 38° |
| 2026-05-06 19:18 | 51.69505 | 9.35665 | 29754 ft | 477 kts | 38° |
| 2026-05-06 19:19 | 51.72098 | 9.39054 | 30137 ft | 483 kts | 38° |
| 2026-05-06 19:19 | 51.74734 | 9.42505 | 30670 ft | 486 kts | 38° |
| 2026-05-06 19:19 | 51.77356 | 9.45943 | 31067 ft | 491 kts | 38° |
| 2026-05-06 19:19 | 51.79993 | 9.49404 | 31474 ft | 493 kts | 38° |
| 2026-05-06 19:20 | 51.82728 | 9.52758 | 31894 ft | 494 kts | 32° |
| 2026-05-06 19:20 | 51.85717 | 9.55456 | 32399 ft | 493 kts | 25° |
| 2026-05-06 19:20 | 51.88765 | 9.57949 | 32894 ft | 492 kts | 26° |
| 2026-05-06 19:20 | 51.91799 | 9.60431 | 33277 ft | 492 kts | 25° |
| 2026-05-06 19:21 | 51.94867 | 9.62934 | 33610 ft | 493 kts | 25° |
| 2026-05-06 19:21 | 51.97913 | 9.65420 | 33988 ft | 491 kts | 26° |
| 2026-05-06 19:21 | 52.00961 | 9.67907 | 34264 ft | 493 kts | 26° |
| 2026-05-06 19:21 | 52.04008 | 9.70396 | 34594 ft | 492 kts | 26° |
| 2026-05-06 19:22 | 52.07078 | 9.72906 | 34907 ft | 492 kts | 26° |
| 2026-05-06 19:22 | 52.10074 | 9.75358 | 35207 ft | 493 kts | 26° |
| 2026-05-06 19:22 | 52.13180 | 9.77904 | 35557 ft | 492 kts | 26° |
| 2026-05-06 19:22 | 52.16211 | 9.80393 | 35824 ft | 492 kts | 26° |
| 2026-05-06 19:23 | 52.19266 | 9.82905 | 36090 ft | 492 kts | 26° |
| 2026-05-06 19:23 | 52.22334 | 9.85430 | 36346 ft | 492 kts | 26° |
| 2026-05-06 19:23 | 52.25411 | 9.87968 | 36587 ft | 493 kts | 26° |
| 2026-05-06 19:23 | 52.28463 | 9.90489 | 36788 ft | 493 kts | 26° |
| 2026-05-06 19:24 | 52.31499 | 9.93002 | 36828 ft | 488 kts | 26° |
| 2026-05-06 19:24 | 52.37529 | 9.98002 | 36842 ft | 488 kts | 26° |
| 2026-05-06 19:25 | 52.43605 | 10.03055 | 36846 ft | 492 kts | 26° |
| 2026-05-06 19:25 | 52.49706 | 10.08145 | 36851 ft | 491 kts | 26° |
| 2026-05-06 19:26 | 52.55767 | 10.13218 | 36845 ft | 491 kts | 26° |
| 2026-05-06 19:26 | 52.61848 | 10.18324 | 36845 ft | 491 kts | 26° |
| 2026-05-06 19:27 | 52.67939 | 10.23454 | 36849 ft | 492 kts | 26° |
| 2026-05-06 19:27 | 52.73986 | 10.28562 | 36849 ft | 491 kts | 26° |
| 2026-05-06 19:28 | 52.80058 | 10.33709 | 36852 ft | 492 kts | 26° |
| 2026-05-06 19:28 | 52.86127 | 10.38869 | 36850 ft | 491 kts | 26° |
| 2026-05-06 19:29 | 52.92172 | 10.44025 | 36855 ft | 491 kts | 26° |
| 2026-05-06 19:29 | 52.98244 | 10.49220 | 36864 ft | 493 kts | 26° |
| 2026-05-06 19:30 | 53.04311 | 10.54428 | 36862 ft | 492 kts | 26° |
| 2026-05-06 19:30 | 53.10399 | 10.59670 | 36865 ft | 492 kts | 26° |
| 2026-05-06 19:31 | 53.16420 | 10.64872 | 36868 ft | 492 kts | 26° |
| 2026-05-06 19:31 | 53.25513 | 10.72757 | 36865 ft | 491 kts | 26° |
| 2026-05-06 19:32 | 53.31565 | 10.78028 | 36834 ft | 492 kts | 26° |
| 2026-05-06 19:32 | 53.34642 | 10.80713 | 36518 ft | 499 kts | 26° |
| 2026-05-06 19:32 | 53.37668 | 10.83359 | 36312 ft | 494 kts | 26° |
| 2026-05-06 19:33 | 53.40685 | 10.86002 | 36201 ft | 488 kts | 27° |
| 2026-05-06 19:33 | 53.43647 | 10.88600 | 36179 ft | 477 kts | 27° |
| 2026-05-06 19:33 | 53.46555 | 10.91156 | 36158 ft | 464 kts | 27° |
| 2026-05-06 19:33 | 53.49367 | 10.93632 | 36101 ft | 452 kts | 26° |
| 2026-05-06 19:34 | 53.52130 | 10.96066 | 35792 ft | 447 kts | 27° |
| 2026-05-06 19:34 | 53.54871 | 10.98485 | 35479 ft | 443 kts | 27° |
| 2026-05-06 19:34 | 53.57565 | 11.00866 | 35167 ft | 439 kts | 27° |
| 2026-05-06 19:34 | 53.60256 | 11.03248 | 34756 ft | 439 kts | 27° |
| 2026-05-06 19:35 | 53.62962 | 11.05646 | 34360 ft | 445 kts | 27° |
| 2026-05-06 19:35 | 53.65760 | 11.08129 | 33985 ft | 454 kts | 27° |
| 2026-05-06 19:35 | 53.68543 | 11.10601 | 33601 ft | 460 kts | 27° |
| 2026-05-06 19:35 | 53.71382 | 11.13129 | 33249 ft | 459 kts | 27° |
| 2026-05-06 19:36 | 53.74162 | 11.15608 | 32895 ft | 454 kts | 27° |
| 2026-05-06 19:36 | 53.76951 | 11.18099 | 32474 ft | 450 kts | 27° |
| 2026-05-06 19:36 | 53.79695 | 11.20553 | 32067 ft | 448 kts | 27° |
| 2026-05-06 19:36 | 53.82436 | 11.23009 | 31661 ft | 447 kts | 27° |
| 2026-05-06 19:37 | 53.85200 | 11.25488 | 31247 ft | 448 kts | 27° |
| 2026-05-06 19:37 | 53.87918 | 11.27930 | 30832 ft | 450 kts | 28° |
| 2026-05-06 19:37 | 53.90721 | 11.30452 | 30369 ft | 451 kts | 28° |
| 2026-05-06 19:37 | 53.92563 | 11.32112 | 30064 ft | 451 kts | 28° |
| 2026-05-06 19:38 | 53.96255 | 11.35444 | 29454 ft | 451 kts | 28° |
| 2026-05-06 19:38 | 53.98995 | 11.37921 | 29003 ft | 449 kts | 28° |
| 2026-05-06 19:38 | 54.01731 | 11.40398 | 28556 ft | 444 kts | 28° |
| 2026-05-06 19:38 | 54.04436 | 11.42852 | 28105 ft | 439 kts | 27° |
| 2026-05-06 19:39 | 54.07109 | 11.45278 | 27893 ft | 431 kts | 27° |
| 2026-05-06 19:39 | 54.09714 | 11.47647 | 27929 ft | 425 kts | 27° |
| 2026-05-06 19:39 | 54.12343 | 11.50041 | 27939 ft | 435 kts | 27° |
| 2026-05-06 19:39 | 54.15048 | 11.52507 | 27934 ft | 443 kts | 27° |
| 2026-05-06 19:40 | 54.17754 | 11.54978 | 27926 ft | 443 kts | 27° |
| 2026-05-06 19:40 | 54.20443 | 11.57438 | 27926 ft | 439 kts | 27° |
| 2026-05-06 19:40 | 54.23116 | 11.59887 | 27918 ft | 427 kts | 27° |
| 2026-05-06 19:40 | 54.25672 | 11.62231 | 27917 ft | 412 kts | 27° |
| 2026-05-06 19:41 | 54.28151 | 11.64509 | 27920 ft | 399 kts | 27° |
| 2026-05-06 19:41 | 54.30555 | 11.66721 | 27938 ft | 396 kts | 28° |
| 2026-05-06 19:41 | 54.32988 | 11.68961 | 27870 ft | 405 kts | 28° |
| 2026-05-06 19:41 | 54.35486 | 11.71265 | 27090 ft | 435 kts | 28° |
| 2026-05-06 19:42 | 54.38173 | 11.73748 | 26251 ft | 443 kts | 28° |
| 2026-05-06 19:42 | 54.40841 | 11.76215 | 25444 ft | 438 kts | 28° |
| 2026-05-06 19:42 | 54.43512 | 11.78691 | 24598 ft | 431 kts | 27° |
| 2026-05-06 19:42 | 54.46123 | 11.81009 | 23805 ft | 421 kts | 23° |
| 2026-05-06 19:43 | 54.48778 | 11.83046 | 23026 ft | 413 kts | 23° |
| 2026-05-06 19:43 | 54.51349 | 11.85063 | 22265 ft | 407 kts | 23° |
| 2026-05-06 19:43 | 54.53919 | 11.87076 | 21560 ft | 404 kts | 23° |
| 2026-05-06 19:43 | 54.56436 | 11.89053 | 21032 ft | 403 kts | 23° |
| 2026-05-06 19:44 | 54.58960 | 11.91042 | 20615 ft | 397 kts | 23° |
| 2026-05-06 19:44 | 54.61467 | 11.93075 | 20065 ft | 398 kts | 27° |
| 2026-05-06 19:44 | 54.63770 | 11.95621 | 19623 ft | 394 kts | 33° |
| 2026-05-06 19:44 | 54.66054 | 11.98224 | 19229 ft | 392 kts | 32° |
| 2026-05-06 19:45 | 54.68301 | 12.00810 | 18932 ft | 387 kts | 32° |
| 2026-05-06 19:45 | 54.70507 | 12.03348 | 18947 ft | 381 kts | 32° |
| 2026-05-06 19:45 | 54.72733 | 12.05920 | 18958 ft | 387 kts | 32° |
| 2026-05-06 19:45 | 54.74983 | 12.08523 | 18953 ft | 394 kts | 32° |
| 2026-05-06 19:46 | 54.77241 | 12.11142 | 18938 ft | 393 kts | 32° |
| 2026-05-06 19:46 | 54.79509 | 12.13777 | 18935 ft | 390 kts | 32° |
| 2026-05-06 19:46 | 54.81741 | 12.16374 | 18942 ft | 389 kts | 32° |
| 2026-05-06 19:46 | 54.84007 | 12.19013 | 18900 ft | 393 kts | 32° |
| 2026-05-06 19:47 | 54.86283 | 12.21666 | 18193 ft | 406 kts | 32° |
| 2026-05-06 19:47 | 54.88609 | 12.24385 | 17978 ft | 393 kts | 32° |
| 2026-05-06 19:47 | 54.90828 | 12.26984 | 17788 ft | 383 kts | 32° |
| 2026-05-06 19:47 | 54.93023 | 12.29555 | 17335 ft | 380 kts | 32° |
| 2026-05-06 19:48 | 54.95197 | 12.32103 | 16920 ft | 376 kts | 32° |
| 2026-05-06 19:48 | 54.97351 | 12.34626 | 16508 ft | 371 kts | 32° |
| 2026-05-06 19:48 | 54.99456 | 12.37096 | 16074 ft | 368 kts | 32° |
| 2026-05-06 19:48 | 55.01584 | 12.39583 | 15632 ft | 365 kts | 32° |
| 2026-05-06 19:49 | 55.03675 | 12.42021 | 15198 ft | 362 kts | 32° |
| 2026-05-06 19:49 | 55.05743 | 12.44435 | 14764 ft | 358 kts | 32° |
| 2026-05-06 19:49 | 55.07795 | 12.46834 | 14335 ft | 355 kts | 32° |
| 2026-05-06 19:49 | 55.09814 | 12.49198 | 13916 ft | 351 kts | 32° |
| 2026-05-06 19:50 | 55.11847 | 12.51580 | 13124 ft | 348 kts | 32° |
| 2026-05-06 19:50 | 55.13828 | 12.53905 | 12406 ft | 342 kts | 32° |
| 2026-05-06 19:50 | 55.15765 | 12.56181 | 11671 ft | 337 kts | 32° |
| 2026-05-06 19:50 | 55.17684 | 12.58438 | 11149 ft | 325 kts | 32° |
| 2026-05-06 19:51 | 55.19509 | 12.60587 | 10879 ft | 308 kts | 33° |
| 2026-05-06 19:51 | 55.21224 | 12.62611 | 10538 ft | 297 kts | 33° |
| 2026-05-06 19:51 | 55.22951 | 12.64554 | 10079 ft | 288 kts | 24° |
| 2026-05-06 19:51 | 55.24771 | 12.65737 | 9914 ft | 277 kts | 18° |
| 2026-05-06 19:52 | 55.26596 | 12.66809 | 9694 ft | 273 kts | 18° |
| 2026-05-06 19:52 | 55.28379 | 12.67852 | 9451 ft | 270 kts | 18° |
| 2026-05-06 19:52 | 55.30153 | 12.68876 | 9215 ft | 268 kts | 18° |
| 2026-05-06 19:52 | 55.31909 | 12.69885 | 8984 ft | 267 kts | 18° |
| 2026-05-06 19:53 | 55.33668 | 12.70893 | 8749 ft | 265 kts | 18° |
| 2026-05-06 19:53 | 55.35409 | 12.71890 | 8519 ft | 263 kts | 18° |
| 2026-05-06 19:53 | 55.37141 | 12.72882 | 8306 ft | 262 kts | 18° |
| 2026-05-06 19:53 | 55.38867 | 12.73870 | 8010 ft | 262 kts | 18° |
| 2026-05-06 19:54 | 55.40585 | 12.74855 | 7732 ft | 260 kts | 18° |
| 2026-05-06 19:54 | 55.42289 | 12.75831 | 7454 ft | 258 kts | 18° |
| 2026-05-06 19:54 | 55.43991 | 12.76808 | 7177 ft | 256 kts | 18° |
| 2026-05-06 19:54 | 55.45671 | 12.77772 | 6937 ft | 254 kts | 18° |
| 2026-05-06 19:55 | 55.47344 | 12.78733 | 6653 ft | 253 kts | 19° |
| 2026-05-06 19:55 | 55.49028 | 12.79702 | 6381 ft | 252 kts | 19° |
| 2026-05-06 19:55 | 55.50682 | 12.80654 | 6125 ft | 251 kts | 19° |
| 2026-05-06 19:55 | 55.52327 | 12.81601 | 5865 ft | 250 kts | 19° |
| 2026-05-06 19:56 | 55.53978 | 12.82553 | 5605 ft | 249 kts | 19° |
| 2026-05-06 19:56 | 55.55614 | 12.83506 | 5349 ft | 248 kts | 21° |
| 2026-05-06 19:56 | 55.57195 | 12.84618 | 5243 ft | 239 kts | 24° |
| 2026-05-06 19:56 | 55.58691 | 12.85696 | 5039 ft | 237 kts | 23° |
| 2026-05-06 19:57 | 55.60253 | 12.86819 | 4600 ft | 242 kts | 24° |
| 2026-05-06 19:57 | 55.61778 | 12.87913 | 4330 ft | 233 kts | 24° |
| 2026-05-06 19:57 | 55.63124 | 12.89328 | 4218 ft | 222 kts | 42° |
| 2026-05-06 19:57 | 55.64296 | 12.91141 | 4099 ft | 225 kts | 41° |
| 2026-05-06 19:58 | 55.65475 | 12.92935 | 3969 ft | 221 kts | 42° |
| 2026-05-06 19:58 | 55.66614 | 12.94689 | 3942 ft | 217 kts | 42° |
| 2026-05-06 19:58 | 55.67765 | 12.96475 | 3686 ft | 224 kts | 42° |
| 2026-05-06 19:58 | 55.68923 | 12.98276 | 3660 ft | 220 kts | 42° |
| 2026-05-06 19:59 | 55.70083 | 13.00087 | 3549 ft | 221 kts | 42° |
| 2026-05-06 19:59 | 55.71225 | 13.01872 | 3473 ft | 220 kts | 43° |
| 2026-05-06 19:59 | 55.72377 | 13.03691 | 3366 ft | 220 kts | 43° |
| 2026-05-06 19:59 | 55.73603 | 13.05227 | 3359 ft | 217 kts | 19° |
| 2026-05-06 20:00 | 55.75065 | 13.05344 | 3397 ft | 214 kts | 344° |
| 2026-05-06 20:00 | 55.76298 | 13.03911 | 3334 ft | 217 kts | 311° |
| 2026-05-06 20:00 | 55.77157 | 13.01730 | 3274 ft | 213 kts | 305° |
| 2026-05-06 20:00 | 55.77772 | 12.99343 | 3115 ft | 218 kts | 278° |
| 2026-05-06 20:01 | 55.77625 | 12.96683 | 3020 ft | 219 kts | 255° |
| 2026-05-06 20:01 | 55.77217 | 12.94085 | 3041 ft | 218 kts | 254° |
| 2026-05-06 20:01 | 55.76808 | 12.91503 | 3044 ft | 220 kts | 254° |
| 2026-05-06 20:01 | 55.76362 | 12.88906 | 3043 ft | 221 kts | 244° |
| 2026-05-06 20:02 | 55.75372 | 12.86815 | 3065 ft | 218 kts | 219° |
| 2026-05-06 20:02 | 55.74239 | 12.85024 | 3070 ft | 220 kts | 221° |
| 2026-05-06 20:02 | 55.73106 | 12.83202 | 2873 ft | 223 kts | 220° |
| 2026-05-06 20:02 | 55.71955 | 12.81384 | 2550 ft | 221 kts | 219° |
| 2026-05-06 20:03 | 55.70814 | 12.79592 | 2228 ft | 219 kts | 219° |
| 2026-05-06 20:03 | 55.69678 | 12.77817 | 1930 ft | 214 kts | 219° |
| 2026-05-06 20:03 | 55.68623 | 12.76174 | 1664 ft | 195 kts | 218° |
| 2026-05-06 20:03 | 55.67627 | 12.74632 | 1338 ft | 186 kts | 219° |
| 2026-05-06 20:04 | 55.66675 | 12.73163 | 1088 ft | 176 kts | 218° |
| 2026-05-06 20:04 | 55.65799 | 12.71823 | 955 ft | 158 kts | 219° |
| 2026-05-06 20:04 | 55.65004 | 12.70581 | 738 ft | 151 kts | 219° |
| 2026-05-06 20:04 | 55.64233 | 12.69374 | 517 ft | 149 kts | 219° |
| 2026-05-06 20:05 | 55.63458 | 12.68167 | 310 ft | 146 kts | 219° |
| 2026-05-06 20:05 | 55.62696 | 12.66993 | 102 ft | 144 kts | 219° |
| 2026-05-06 20:05 | 55.61966 | 12.65865 | 21 ft | 130 kts | 219° |
| 2026-05-06 20:05 | 55.61408 | 12.65019 | 26 ft | 76 kts | 218° |
| 2026-05-06 20:06 | 55.61067 | 12.64483 | 27 ft | 66 kts | 221° |
| 2026-05-06 20:06 | 55.60788 | 12.64047 | 26 ft | 32 kts | 221° |
| 2026-05-06 20:06 | 55.60695 | 12.63876 | 25 ft | 13 kts | 249° |
| 2026-05-06 20:06 | 55.60717 | 12.63728 | 25 ft | 13 kts | 307° |
| 2026-05-06 20:07 | 55.60779 | 12.63612 | 24 ft | 12 kts | 326° |
| 2026-05-06 20:07 | 55.60856 | 12.63624 | 25 ft | 11 kts | 28° |
| 2026-05-06 20:07 | 55.60923 | 12.63703 | 25 ft | 11 kts | 33° |
| 2026-05-06 20:07 | 55.60990 | 12.63779 | 25 ft | 11 kts | 33° |
| 2026-05-06 20:08 | 55.61063 | 12.63864 | 25 ft | 13 kts | 33° |
| 2026-05-06 20:08 | 55.61159 | 12.63971 | 25 ft | 19 kts | 33° |
| 2026-05-06 20:08 | 55.61290 | 12.64124 | 25 ft | 24 kts | 33° |
| 2026-05-06 20:08 | 55.61449 | 12.64306 | 25 ft | 30 kts | 33° |
| 2026-05-06 20:09 | 55.61644 | 12.64530 | 25 ft | 34 kts | 33° |
| 2026-05-06 20:09 | 55.61846 | 12.64760 | 24 ft | 34 kts | 33° |
| 2026-05-06 20:09 | 55.61985 | 12.64922 | 23 ft | 6 kts | 33° |
| 2026-05-06 20:09 | 55.62006 | 12.64982 | 23 ft | 6 kts | 84° |
| 2026-05-06 20:10 | 55.61983 | 12.65083 | 23 ft | 12 kts | 123° |
| 2026-05-06 20:10 | 55.61921 | 12.65246 | 23 ft | 19 kts | 124° |
| 2026-05-06 20:10 | 55.61845 | 12.65446 | 22 ft | 19 kts | 124° |
| 2026-05-06 20:10 | 55.61769 | 12.65659 | 22 ft | 23 kts | 123° |
| 2026-05-06 20:11 | 55.61668 | 12.65928 | 21 ft | 27 kts | 123° |
| 2026-05-06 20:11 | 55.61562 | 12.66209 | 20 ft | 27 kts | 124° |
| 2026-05-06 20:11 | 55.61457 | 12.66488 | 19 ft | 26 kts | 123° |
| 2026-05-06 20:11 | 55.61372 | 12.66729 | 19 ft | 17 kts | 122° |
| 2026-05-06 20:12 | 55.61306 | 12.66909 | 19 ft | 17 kts | 123° |
| 2026-05-06 20:12 | 55.61280 | 12.67038 | 19 ft | 9 kts | 70° |
| 2026-05-06 20:12 | 55.61333 | 12.67112 | 19 ft | 11 kts | 22° |
| 2026-05-06 20:12 | 55.61419 | 12.67127 | 18 ft | 13 kts | 354° |
| 2026-05-06 20:13 | 55.61510 | 12.67096 | 18 ft | 13 kts | 349° |
| 2026-05-06 20:13 | 55.61602 | 12.67064 | 18 ft | 13 kts | 349° |
| 2026-05-06 20:13 | 55.61698 | 12.67031 | 18 ft | 14 kts | 349° |
| 2026-05-06 20:13 | 55.61797 | 12.66998 | 18 ft | 14 kts | 349° |
| 2026-05-06 20:14 | 55.61899 | 12.66964 | 18 ft | 15 kts | 349° |
| 2026-05-06 20:14 | 55.61997 | 12.66929 | 18 ft | 9 kts | 348° |
| 2026-05-06 20:14 | 55.62047 | 12.66915 | 18 ft | 4 kts | 10° |
| 2026-05-06 20:14 | 55.62066 | 12.66949 | 18 ft | 4 kts | 66° |
| 2026-05-06 20:15 | 55.62075 | 12.67008 | 18 ft | 5 kts | 78° |
| 2026-05-06 20:15 | 55.62080 | 12.67053 | 18 ft | 0 kts | 78° |